Time;durP1;ratioP1;P1;durP2;ratioP2;P2;SDS_P1;SDS_P2;PMS_P1;PMS_P2;Temp;Humidity;BMP_temperature;BMP_pressure;BME280_temperature;BME280_humidity;BME280_pressure;Samples;Min_cycle;Max_cycle;Signal;HPM_P1;HPM_P2
2021/11/28 00:02:16;;;;;;;37.63;23.97;;;;;;;;;;5000307;28;20256;-74
2021/11/28 00:04:43;;;;;;;31.47;20.53;;;;;;;;;;5001164;28;20212;-74
2021/11/28 00:07:22;;;;;;;36.87;23.47;;;;;;;;;;5001044;28;20227;-73
2021/11/28 00:09:58;;;;;;;39.90;22.87;;;;;;;;;;5000025;28;20208;-73
2021/11/28 00:12:38;;;;;;;37.37;22.70;;;;;;;;;;4999897;28;20214;-74
2021/11/28 00:15:05;;;;;;;29.50;20.53;;;;;;;;;;5000936;28;20231;-73
2021/11/28 00:17:33;;;;;;;38.97;23.23;;;;;;;;;;5000320;28;20636;-73
2021/11/28 00:20:01;;;;;;;43.17;25.00;;;;;;;;;;4999879;28;20274;-73
2021/11/28 00:22:28;;;;;;;38.33;23.30;;;;;;;;;;5000526;28;20216;-73
2021/11/28 00:24:54;;;;;;;33.80;22.57;;;;;;;;;;5001123;28;20215;-73
2021/11/28 00:27:20;;;;;;;31.03;21.47;;;;;;;;;;5000220;28;20280;-73
2021/11/28 00:29:47;;;;;;;33.77;23.13;;;;;;;;;;5000069;28;20435;-73
2021/11/28 00:32:14;;;;;;;38.63;24.87;;;;;;;;;;5000642;28;20228;-73
2021/11/28 00:34:41;;;;;;;34.00;23.33;;;;;;;;;;5000071;28;20219;-73
2021/11/28 00:37:10;;;;;;;37.37;25.00;;;;;;;;;;4999971;28;20266;-73
2021/11/28 00:39:37;;;;;;;32.37;22.33;;;;;;;;;;5001543;28;20287;-74
2021/11/28 00:42:06;;;;;;;32.23;20.67;;;;;;;;;;4999387;28;20228;-73
2021/11/28 00:44:32;;;;;;;30.63;21.77;;;;;;;;;;5000216;28;20275;-73
2021/11/28 00:46:59;;;;;;;32.33;22.27;;;;;;;;;;5000868;28;20220;-74
2021/11/28 00:49:27;;;;;;;31.63;22.67;;;;;;;;;;4998865;28;20243;-73
2021/11/28 00:51:56;;;;;;;34.17;22.77;;;;;;;;;;4999290;28;20956;-73
2021/11/28 00:54:25;;;;;;;33.30;22.50;;;;;;;;;;4999859;28;20238;-74
2021/11/28 00:56:51;;;;;;;36.83;24.17;;;;;;;;;;5000470;28;20269;-73
2021/11/28 00:59:18;;;;;;;35.23;22.50;;;;;;;;;;4999435;28;20663;-73
2021/11/28 01:01:44;;;;;;;34.57;23.93;;;;;;;;;;4999692;28;20290;-73
2021/11/28 01:04:11;;;;;;;31.43;22.33;;;;;;;;;;4999813;28;20227;-74
2021/11/28 01:06:38;;;;;;;36.10;24.17;;;;;;;;;;4999779;28;20216;-74
2021/11/28 01:09:07;;;;;;;36.47;24.00;;;;;;;;;;5000411;28;20212;-74
2021/11/28 01:11:33;;;;;;;32.33;23.23;;;;;;;;;;5000138;28;20222;-73
2021/11/28 01:14:00;;;;;;;36.77;24.87;;;;;;;;;;4999112;28;20270;-73
2021/11/28 01:16:26;;;;;;;38.97;25.60;;;;;;;;;;4999365;28;20212;-73
2021/11/28 01:18:54;;;;;;;36.83;24.97;;;;;;;;;;4999919;28;20290;-74
2021/11/28 01:21:20;;;;;;;34.53;24.03;;;;;;;;;;4999091;28;20220;-74
2021/11/28 01:23:47;;;;;;;31.77;23.13;;;;;;;;;;5000113;28;20211;-73
2021/11/28 01:26:15;;;;;;;36.83;25.10;;;;;;;;;;4999802;28;20215;-73
2021/11/28 01:28:42;;;;;;;36.70;24.53;;;;;;;;;;4999518;28;20207;-73
2021/11/28 01:31:09;;;;;;;33.53;23.23;;;;;;;;;;4999686;28;20647;-73
2021/11/28 01:33:35;;;;;;;37.87;23.17;;;;;;;;;;5000448;28;20225;-73
2021/11/28 01:36:02;;;;;;;40.80;25.43;;;;;;;;;;4999089;28;20239;-73
2021/11/28 01:38:28;;;;;;;34.60;22.97;;;;;;;;;;4999469;28;20662;-73
2021/11/28 01:40:56;;;;;;;31.73;23.50;;;;;;;;;;4999909;28;20216;-73
2021/11/28 01:43:24;;;;;;;38.63;25.37;;;;;;;;;;4998910;28;20220;-73
2021/11/28 01:45:52;;;;;;;32.40;22.37;;;;;;;;;;4999441;28;20796;-73
2021/11/28 01:48:20;;;;;;;36.97;24.33;;;;;;;;;;4999416;28;20923;-73
2021/11/28 01:50:50;;;;;;;35.00;23.57;;;;;;;;;;5000129;28;20330;-73
2021/11/28 01:53:19;;;;;;;35.80;24.30;;;;;;;;;;4999274;28;20282;-73
2021/11/28 01:55:46;;;;;;;36.43;24.43;;;;;;;;;;4999416;28;20305;-73
2021/11/28 01:58:13;;;;;;;39.47;24.30;;;;;;;;;;4999667;28;20223;-73
2021/11/28 02:00:46;;;;;;;34.17;23.50;;;;;;;;;;4999258;28;20588;-73
2021/11/28 02:03:15;;;;;;;37.20;22.53;;;;;;;;;;4999948;28;20309;-73
2021/11/28 02:05:46;;;;;;;41.70;25.70;;;;;;;;;;5003932;28;20218;-73
2021/11/28 02:08:13;;;;;;;42.30;26.00;;;;;;;;;;5001889;28;20307;-73
2021/11/28 02:10:40;;;;;;;48.23;28.13;;;;;;;;;;5003486;28;20343;-73
2021/11/28 02:13:07;;;;;;;40.50;25.13;;;;;;;;;;5003796;28;20254;-73
2021/11/28 02:15:34;;;;;;;46.77;27.53;;;;;;;;;;5002424;28;20236;-73
2021/11/28 02:18:02;;;;;;;45.77;27.23;;;;;;;;;;5001339;28;21018;-73
2021/11/28 02:20:31;;;;;;;48.43;27.37;;;;;;;;;;5003052;28;20208;-73
2021/11/28 02:23:00;;;;;;;43.47;26.87;;;;;;;;;;5002243;28;20672;-73
2021/11/28 02:25:26;;;;;;;43.90;25.93;;;;;;;;;;5002039;28;20238;-73
2021/11/28 02:27:53;;;;;;;42.30;26.93;;;;;;;;;;5003013;28;20219;-73
2021/11/28 02:30:20;;;;;;;42.10;26.57;;;;;;;;;;5002506;28;20258;-74
2021/11/28 02:32:48;;;;;;;40.20;26.87;;;;;;;;;;5001021;28;20274;-73
2021/11/28 02:35:15;;;;;;;44.50;26.03;;;;;;;;;;5002810;28;20244;-73
2021/11/28 02:37:42;;;;;;;47.47;27.00;;;;;;;;;;5002622;28;20212;-73
2021/11/28 02:40:12;;;;;;;42.23;26.93;;;;;;;;;;5000969;28;20266;-73
2021/11/28 02:42:39;;;;;;;54.97;29.27;;;;;;;;;;5002696;28;20216;-73
2021/11/28 02:45:06;;;;;;;42.13;26.40;;;;;;;;;;5002598;28;20212;-73
2021/11/28 02:47:33;;;;;;;45.53;26.47;;;;;;;;;;5001722;28;20232;-73
2021/11/28 02:49:59;;;;;;;50.17;27.50;;;;;;;;;;5002678;28;20632;-73
2021/11/28 02:52:26;;;;;;;43.97;26.77;;;;;;;;;;5002223;28;20784;-74
2021/11/28 02:54:53;;;;;;;47.23;26.57;;;;;;;;;;5001270;28;20232;-73
2021/11/28 02:57:21;;;;;;;44.70;26.60;;;;;;;;;;5001618;28;20621;-74
2021/11/28 02:59:48;;;;;;;48.07;26.63;;;;;;;;;;5002518;28;21028;-73
2021/11/28 03:02:14;;;;;;;54.78;33.65;;;;;;;;;;5000275;28;20445;-73
2021/11/28 03:04:41;;;;;;;57.67;29.63;;;;;;;;;;5001960;28;20386;-73
2021/11/28 03:07:07;;;;;;;48.67;26.83;;;;;;;;;;5002202;28;20208;-73
2021/11/28 03:09:34;;;;;;;47.90;27.13;;;;;;;;;;5001986;28;20215;-73
2021/11/28 03:12:00;;;;;;;55.40;28.50;;;;;;;;;;5002919;28;20236;-74
2021/11/28 03:14:28;;;;;;;54.50;29.17;;;;;;;;;;5002429;28;20208;-74
2021/11/28 03:16:55;;;;;;;55.80;29.33;;;;;;;;;;4988146;28;20239;-74
2021/11/28 03:19:22;;;;;;;50.33;27.57;;;;;;;;;;5003339;28;20719;-75
2021/11/28 03:21:49;;;;;;;57.60;28.57;;;;;;;;;;5004605;28;20208;-72
2021/11/28 03:24:16;;;;;;;57.70;27.80;;;;;;;;;;5001367;28;20216;-73
2021/11/28 03:26:43;;;;;;;60.43;28.57;;;;;;;;;;5000446;28;20207;-73
2021/11/28 03:29:13;;;;;;;57.73;29.90;;;;;;;;;;5001458;28;20221;-74
2021/11/28 03:31:43;;;;;;;55.90;28.20;;;;;;;;;;5002259;28;20273;-73
2021/11/28 03:34:11;;;;;;;60.20;30.07;;;;;;;;;;4999674;28;21116;-73
2021/11/28 03:36:40;;;;;;;47.97;26.27;;;;;;;;;;5001718;28;20301;-73
2021/11/28 03:39:10;;;;;;;59.07;29.20;;;;;;;;;;5001634;28;20219;-73
2021/11/28 03:41:37;;;;;;;54.60;27.80;;;;;;;;;;5000381;28;20216;-73
2021/11/28 03:44:06;;;;;;;75.57;30.97;;;;;;;;;;5003211;28;20215;-73
2021/11/28 03:46:33;;;;;;;58.93;29.50;;;;;;;;;;5002374;28;20250;-73
2021/11/28 03:49:02;;;;;;;64.23;29.00;;;;;;;;;;5000113;28;20247;-74
2021/11/28 03:51:28;;;;;;;55.03;26.37;;;;;;;;;;5000255;28;20262;-73
2021/11/28 03:53:55;;;;;;;49.37;25.83;;;;;;;;;;5001229;28;20212;-72
2021/11/28 03:56:22;;;;;;;47.07;26.47;;;;;;;;;;5001507;28;20642;-73
2021/11/28 03:58:49;;;;;;;40.13;23.80;;;;;;;;;;4999948;28;20262;-73
2021/11/28 04:01:17;;;;;;;35.10;20.90;;;;;;;;;;5000880;28;20220;-73
2021/11/28 04:03:44;;;;;;;44.00;23.33;;;;;;;;;;5001589;28;20710;-73
2021/11/28 04:06:12;;;;;;;37.70;21.43;;;;;;;;;;4999676;28;20766;-72
2021/11/28 04:08:40;;;;;;;37.27;22.27;;;;;;;;;;5001900;28;20216;-73
2021/11/28 04:11:06;;;;;;;38.27;21.97;;;;;;;;;;5000824;28;20231;-73
2021/11/28 04:13:33;;;;;;;38.97;21.60;;;;;;;;;;5000207;28;20215;-72
2021/11/28 04:15:59;;;;;;;44.00;21.70;;;;;;;;;;5000296;28;20334;-72
2021/11/28 04:18:26;;;;;;;44.03;23.90;;;;;;;;;;5001187;28;20286;-73
2021/11/28 04:20:52;;;;;;;46.33;24.60;;;;;;;;;;4999998;28;20292;-73
2021/11/28 04:23:20;;;;;;;51.27;25.17;;;;;;;;;;5000411;28;20222;-73
2021/11/28 04:25:48;;;;;;;49.53;25.27;;;;;;;;;;5000957;28;20230;-72
2021/11/28 04:28:15;;;;;;;48.57;24.40;;;;;;;;;;4999147;28;20327;-73
2021/11/28 04:30:41;;;;;;;50.23;23.13;;;;;;;;;;4999761;28;20266;-73
2021/11/28 04:33:10;;;;;;;56.00;24.53;;;;;;;;;;5000639;28;20502;-72
2021/11/28 04:35:36;;;;;;;48.77;24.17;;;;;;;;;;5000586;28;20814;-72
2021/11/28 04:38:03;;;;;;;58.90;25.60;;;;;;;;;;4999847;28;20212;-72
2021/11/28 04:40:31;;;;;;;40.97;22.40;;;;;;;;;;5000831;28;20235;-72
2021/11/28 04:42:58;;;;;;;50.67;23.47;;;;;;;;;;4999882;28;20220;-72
2021/11/28 04:45:24;;;;;;;51.77;24.80;;;;;;;;;;4999993;28;20212;-73
2021/11/28 04:47:50;;;;;;;39.77;21.83;;;;;;;;;;4999974;28;20255;-72
2021/11/28 04:50:17;;;;;;;43.93;22.90;;;;;;;;;;5000799;28;20254;-72
2021/11/28 04:52:44;;;;;;;58.07;24.63;;;;;;;;;;4999836;28;20219;-73
2021/11/28 04:55:13;;;;;;;55.90;25.10;;;;;;;;;;4999444;28;20385;-73
2021/11/28 04:57:41;;;;;;;50.47;23.63;;;;;;;;;;5001143;28;20866;-73
2021/11/28 05:00:11;;;;;;;56.07;25.00;;;;;;;;;;5000480;28;20211;-73
2021/11/28 05:02:39;;;;;;;50.77;24.47;;;;;;;;;;5000255;28;20227;-73
2021/11/28 05:05:06;;;;;;;44.40;22.30;;;;;;;;;;5000005;28;20220;-73
2021/11/28 05:07:33;;;;;;;56.83;25.67;;;;;;;;;;5000713;28;20216;-73
2021/11/28 05:10:00;;;;;;;53.77;23.93;;;;;;;;;;4999482;28;21200;-73
2021/11/28 05:12:26;;;;;;;38.53;20.43;;;;;;;;;;5000678;28;20274;-73
2021/11/28 05:14:54;;;;;;;37.10;20.17;;;;;;;;;;5000288;28;20438;-73
2021/11/28 05:17:21;;;;;;;39.67;20.60;;;;;;;;;;4999731;28;20234;-72
2021/11/28 05:19:47;;;;;;;46.67;22.20;;;;;;;;;;5000588;28;20211;-73
2021/11/28 05:22:15;;;;;;;53.63;24.60;;;;;;;;;;5000204;28;20279;-73
2021/11/28 05:24:41;;;;;;;43.30;20.57;;;;;;;;;;4999379;28;20602;-73
2021/11/28 05:27:08;;;;;;;42.60;21.47;;;;;;;;;;4999408;28;20321;-73
2021/11/28 05:29:35;;;;;;;39.30;19.27;;;;;;;;;;5000519;28;20208;-73
2021/11/28 05:32:03;;;;;;;35.65;25.40;;;;;;;;;;4997806;28;21191;-76
2021/11/28 05:34:29;;;;;;;30.17;18.97;;;;;;;;;;4999033;28;20219;-75
2021/11/28 05:36:56;;;;;;;43.67;21.57;;;;;;;;;;5000029;28;20238;-76
2021/11/28 05:39:22;;;;;;;39.87;19.60;;;;;;;;;;5002570;28;20219;-75
2021/11/28 05:41:49;;;;;;;40.70;21.40;;;;;;;;;;5002828;28;20651;-76
2021/11/28 05:44:16;;;;;;;46.80;22.10;;;;;;;;;;5004136;28;20208;-76
2021/11/28 05:46:42;;;;;;;45.20;21.47;;;;;;;;;;5003037;28;20687;-76
2021/11/28 05:49:10;;;;;;;58.47;24.53;;;;;;;;;;5002321;28;20290;-76
2021/11/28 05:51:36;;;;;;;48.87;22.40;;;;;;;;;;5003591;28;20236;-76
2021/11/28 05:54:03;;;;;;;54.87;24.50;;;;;;;;;;5002473;28;20212;-76
2021/11/28 05:56:30;;;;;;;44.10;21.70;;;;;;;;;;5002393;28;20307;-76
2021/11/28 05:58:57;;;;;;;53.13;22.73;;;;;;;;;;5002696;28;21129;-76
2021/11/28 06:01:24;;;;;;;41.43;21.73;;;;;;;;;;5003549;28;20211;-76
2021/11/28 06:03:50;;;;;;;44.87;21.73;;;;;;;;;;5002874;28;20703;-77
2021/11/28 06:06:18;;;;;;;57.80;24.17;;;;;;;;;;5003015;28;20231;-76
2021/11/28 06:08:45;;;;;;;80.23;27.40;;;;;;;;;;5003544;28;20208;-77
2021/11/28 06:11:11;;;;;;;51.70;24.97;;;;;;;;;;5002344;28;20230;-76
2021/11/28 06:13:38;;;;;;;55.87;26.67;;;;;;;;;;5003329;28;20208;-77
2021/11/28 06:16:05;;;;;;;41.63;20.87;;;;;;;;;;5003643;28;20759;-76
2021/11/28 06:18:32;;;;;;;47.00;23.30;;;;;;;;;;5003143;28;20601;-76
2021/11/28 06:20:58;;;;;;;44.73;22.10;;;;;;;;;;5002814;28;20216;-76
2021/11/28 06:23:26;;;;;;;39.67;20.53;;;;;;;;;;5002873;28;20214;-76
2021/11/28 06:25:52;;;;;;;43.00;21.70;;;;;;;;;;5002482;28;20232;-76
2021/11/28 06:28:19;;;;;;;56.27;22.63;;;;;;;;;;5002239;28;20635;-76
2021/11/28 06:30:45;;;;;;;44.67;22.23;;;;;;;;;;5002677;28;20219;-76
2021/11/28 06:33:12;;;;;;;42.87;21.87;;;;;;;;;;5002623;28;20232;-76
2021/11/28 06:35:38;;;;;;;43.43;21.27;;;;;;;;;;5002462;28;20577;-76
2021/11/28 06:38:05;;;;;;;53.30;23.00;;;;;;;;;;5002440;28;20312;-76
2021/11/28 06:40:32;;;;;;;50.07;22.50;;;;;;;;;;5002981;28;20228;-76
2021/11/28 06:42:59;;;;;;;44.93;22.67;;;;;;;;;;5001618;28;20849;-76
2021/11/28 06:45:25;;;;;;;46.60;21.97;;;;;;;;;;5002098;28;20740;-76
2021/11/28 06:47:53;;;;;;;50.70;21.83;;;;;;;;;;5002126;28;20592;-75
2021/11/28 06:50:19;;;;;;;41.70;21.43;;;;;;;;;;5001231;28;20234;-76
2021/11/28 06:52:46;;;;;;;43.40;21.47;;;;;;;;;;5002013;28;20215;-76
2021/11/28 06:55:13;;;;;;;52.60;22.97;;;;;;;;;;5002223;28;20239;-75
2021/11/28 06:57:41;;;;;;;67.03;26.27;;;;;;;;;;5001282;28;20238;-76
2021/11/28 07:00:08;;;;;;;56.33;24.33;;;;;;;;;;5001242;28;20734;-76
2021/11/28 07:02:35;;;;;;;54.27;23.83;;;;;;;;;;5000095;28;20281;-76
2021/11/28 07:05:01;;;;;;;46.03;22.43;;;;;;;;;;5000924;28;20218;-76
2021/11/28 07:07:28;;;;;;;61.50;25.50;;;;;;;;;;5000278;28;20969;-76
2021/11/28 07:09:54;;;;;;;59.60;24.63;;;;;;;;;;4999188;28;20235;-76
2021/11/28 07:12:21;;;;;;;45.43;22.00;;;;;;;;;;4998471;28;20253;-77
2021/11/28 07:14:50;;;;;;;44.37;21.83;;;;;;;;;;5000374;28;20222;-77
2021/11/28 07:17:16;;;;;;;58.87;25.20;;;;;;;;;;4998796;28;20235;-76
2021/11/28 07:19:43;;;;;;;48.60;23.47;;;;;;;;;;5000597;28;20813;-76
2021/11/28 07:22:10;;;;;;;38.83;20.00;;;;;;;;;;4998984;28;20306;-76
2021/11/28 07:24:37;;;;;;;43.57;22.03;;;;;;;;;;4998904;28;20232;-76
2021/11/28 07:27:03;;;;;;;51.97;22.83;;;;;;;;;;4999203;28;20208;-76
2021/11/28 07:29:30;;;;;;;50.03;23.27;;;;;;;;;;4998734;28;20393;-76
2021/11/28 07:31:58;;;;;;;58.43;23.77;;;;;;;;;;4999142;28;20317;-76
2021/11/28 07:34:24;;;;;;;58.20;25.53;;;;;;;;;;4998560;28;20463;-76
2021/11/28 07:36:50;;;;;;;53.37;23.80;;;;;;;;;;4999531;28;20231;-76
2021/11/28 07:39:18;;;;;;;53.10;23.40;;;;;;;;;;4999153;28;20492;-77
2021/11/28 07:41:44;;;;;;;56.17;25.27;;;;;;;;;;4999075;28;20574;-77
2021/11/28 07:44:11;;;;;;;51.20;24.60;;;;;;;;;;4999522;28;20212;-76
2021/11/28 07:46:38;;;;;;;46.00;22.63;;;;;;;;;;5001671;28;20212;-76
2021/11/28 07:49:06;;;;;;;51.93;23.73;;;;;;;;;;4998480;28;20337;-76
2021/11/28 07:51:32;;;;;;;50.53;22.90;;;;;;;;;;5001151;28;20242;-76
2021/11/28 07:54:01;;;;;;;52.47;23.70;;;;;;;;;;4997977;28;20215;-76
2021/11/28 07:56:28;;;;;;;48.50;23.80;;;;;;;;;;4998612;28;20706;-76
2021/11/28 07:58:55;;;;;;;41.27;21.93;;;;;;;;;;4997178;28;20839;-76
2021/11/28 08:01:22;;;;;;;43.53;21.97;;;;;;;;;;4999406;28;20698;-76
2021/11/28 08:03:48;;;;;;;50.13;23.10;;;;;;;;;;4999149;28;20220;-76
2021/11/28 08:06:16;;;;;;;42.67;22.53;;;;;;;;;;4998121;28;20718;-76
2021/11/28 08:08:43;;;;;;;42.47;22.83;;;;;;;;;;4999952;28;20216;-76
2021/11/28 08:11:09;;;;;;;44.80;23.57;;;;;;;;;;4996936;28;20230;-77
2021/11/28 08:13:36;;;;;;;39.47;22.63;;;;;;;;;;5000001;28;20352;-77
2021/11/28 08:16:02;;;;;;;44.03;21.73;;;;;;;;;;4998427;28;20226;-77
2021/11/28 08:18:29;;;;;;;40.87;22.03;;;;;;;;;;4998544;28;20289;-77
2021/11/28 08:20:55;;;;;;;42.60;22.27;;;;;;;;;;4998759;28;20274;-77
2021/11/28 08:23:25;;;;;;;41.60;21.93;;;;;;;;;;4997494;28;20600;-77
2021/11/28 08:25:52;;;;;;;39.27;22.00;;;;;;;;;;4999502;28;20224;-77
2021/11/28 08:28:19;;;;;;;47.27;23.13;;;;;;;;;;4998218;28;20375;-77
2021/11/28 08:30:45;;;;;;;41.17;22.33;;;;;;;;;;4998952;28;20216;-77
2021/11/28 08:33:12;;;;;;;36.80;19.47;;;;;;;;;;4998665;28;20231;-77
2021/11/28 08:35:38;;;;;;;40.43;22.03;;;;;;;;;;4998642;28;20246;-77
2021/11/28 08:38:05;;;;;;;43.77;22.67;;;;;;;;;;4999474;28;20515;-77
2021/11/28 08:40:36;;;;;;;46.43;23.83;;;;;;;;;;4998088;28;20239;-77
2021/11/28 08:43:03;;;;;;;50.47;23.13;;;;;;;;;;4997724;28;20216;-77
2021/11/28 08:45:31;;;;;;;45.63;23.40;;;;;;;;;;4999344;28;20270;-77
2021/11/28 08:47:58;;;;;;;46.00;23.10;;;;;;;;;;4996900;28;20318;-77
2021/11/28 08:50:25;;;;;;;53.80;25.33;;;;;;;;;;4998804;28;20935;-77
2021/11/28 08:52:51;;;;;;;37.53;21.67;;;;;;;;;;4997535;28;20212;-77
2021/11/28 08:55:19;;;;;;;37.70;22.33;;;;;;;;;;4998483;28;20228;-78
2021/11/28 08:57:49;;;;;;;44.83;22.93;;;;;;;;;;4998824;28;21108;-77
2021/11/28 09:00:17;;;;;;;33.27;20.43;;;;;;;;;;4997784;28;20220;-77
2021/11/28 09:02:47;;;;;;;34.17;21.57;;;;;;;;;;4999121;28;20278;-77
2021/11/28 09:05:16;;;;;;;46.80;24.27;;;;;;;;;;4997166;28;20219;-76
2021/11/28 09:07:46;;;;;;;46.37;23.00;;;;;;;;;;4998975;28;20218;-77
2021/11/28 09:10:14;;;;;;;45.33;23.80;;;;;;;;;;4997494;28;20235;-77
2021/11/28 09:12:41;;;;;;;52.20;23.77;;;;;;;;;;4998233;28;20269;-77
2021/11/28 09:15:09;;;;;;;46.60;24.30;;;;;;;;;;5002259;28;20215;-78
2021/11/28 09:17:37;;;;;;;29.50;17.77;;;;;;;;;;5002401;28;20231;-78
2021/11/28 09:20:04;;;;;;;18.50;11.13;;;;;;;;;;5005512;28;20246;-77
2021/11/28 09:24:25;;;;;;;15.27;9.83;;;;;;;;;;5003526;28;20247;-77
2021/11/28 09:25:24;;;;;;;6.90;4.23;;;;;;;;;;5001088;28;20251;-77
2021/11/28 09:27:53;;;;;;;1.70;0.90;;;;;;;;;;5002468;28;20381;-77
2021/11/28 09:30:23;;;;;;;1.30;0.60;;;;;;;;;;5000937;28;20215;-77
2021/11/28 09:32:51;;;;;;;1.10;0.60;;;;;;;;;;5002259;28;20234;-77
2021/11/28 09:35:18;;;;;;;1.33;0.70;;;;;;;;;;5001577;28;20265;-77
2021/11/28 09:37:45;;;;;;;1.63;0.80;;;;;;;;;;5001237;28;20228;-77
2021/11/28 09:40:11;;;;;;;1.83;1.20;;;;;;;;;;5001623;28;20235;-77
2021/11/28 09:42:40;;;;;;;0.90;0.77;;;;;;;;;;5000004;28;20747;-76
2021/11/28 09:45:09;;;;;;;1.57;0.80;;;;;;;;;;5001652;28;20339;-76
2021/11/28 09:47:38;;;;;;;2.70;1.00;;;;;;;;;;5000861;28;20220;-76
2021/11/28 09:50:07;;;;;;;1.93;0.90;;;;;;;;;;5000815;28;20236;-76
2021/11/28 09:52:34;;;;;;;2.47;1.00;;;;;;;;;;5001779;28;20734;-77
2021/11/28 09:55:07;;;;;;;1.27;0.80;;;;;;;;;;5000638;28;20224;-77
2021/11/28 09:57:33;;;;;;;1.33;0.50;;;;;;;;;;5001415;28;20625;-77
2021/11/28 10:00:06;;;;;;;0.40;0.30;;;;;;;;;;5001178;28;20204;-77
2021/11/28 10:02:34;;;;;;;0.83;0.37;;;;;;;;;;5001128;28;20497;-77
2021/11/28 10:05:05;;;;;;;1.20;0.60;;;;;;;;;;5001544;28;20208;-77
2021/11/28 10:07:32;;;;;;;0.70;0.57;;;;;;;;;;5000215;28;20663;-77
2021/11/28 10:09:59;;;;;;;0.73;0.40;;;;;;;;;;5001197;28;20675;-77
2021/11/28 10:12:27;;;;;;;1.13;0.47;;;;;;;;;;5000039;28;20212;-77
2021/11/28 10:14:56;;;;;;;0.40;0.20;;;;;;;;;;5000701;28;20215;-77
2021/11/28 10:17:24;;;;;;;0.83;0.20;;;;;;;;;;5001016;28;20279;-77
2021/11/28 10:19:51;;;;;;;1.00;0.10;;;;;;;;;;5000430;28;20216;-77
2021/11/28 10:22:19;;;;;;;0.53;0.37;;;;;;;;;;5000310;28;20212;-77
2021/11/28 10:24:51;;;;;;;0.47;0.20;;;;;;;;;;4998377;28;20771;-76
2021/11/28 10:27:18;;;;;;;0.70;0.27;;;;;;;;;;5000020;28;20290;-76
2021/11/28 10:29:46;;;;;;;0.57;0.20;;;;;;;;;;5000971;28;20621;-76
2021/11/28 10:32:14;;;;;;;1.80;0.20;;;;;;;;;;4999094;28;20219;-76
2021/11/28 10:34:43;;;;;;;0.40;0.20;;;;;;;;;;5002088;28;20311;-76
2021/11/28 10:37:11;;;;;;;0.40;0.30;;;;;;;;;;4998977;28;20279;-76
2021/11/28 10:39:44;;;;;;;0.30;0.20;;;;;;;;;;5000852;28;20241;-76
2021/11/28 10:42:17;;;;;;;0.30;0.23;;;;;;;;;;4999278;28;20310;-76
2021/11/28 10:44:58;;;;;;;1.33;0.40;;;;;;;;;;5000001;28;20220;-76
2021/11/28 10:47:33;;;;;;;0.10;0.10;;;;;;;;;;5000266;28;21306;-76
2021/11/28 10:50:08;;;;;;;0.50;0.20;;;;;;;;;;4999122;28;20694;-75
2021/11/28 10:52:34;;;;;;;0.70;0.20;;;;;;;;;;5000158;28;20215;-76
2021/11/28 10:55:11;;;;;;;0.20;0.20;;;;;;;;;;5000170;28;20232;-77
2021/11/28 10:57:38;;;;;;;0.90;0.40;;;;;;;;;;4998746;28;20649;-77
2021/11/28 11:00:08;;;;;;;0.53;0.20;;;;;;;;;;5000293;28;20220;-77
2021/11/28 11:02:37;;;;;;;1.00;0.20;;;;;;;;;;4998950;28;20278;-77
2021/11/28 11:05:06;;;;;;;1.27;0.20;;;;;;;;;;4999496;28;20235;-76
2021/11/28 11:07:42;;;;;;;0.67;0.10;;;;;;;;;;4999735;28;20618;-77
2021/11/28 11:10:18;;;;;;;0.20;0.13;;;;;;;;;;4999368;28;20227;-77
2021/11/28 11:12:45;;;;;;;4.10;0.33;;;;;;;;;;5000546;28;20203;-76
2021/11/28 11:15:15;;;;;;;2.27;0.50;;;;;;;;;;4998525;28;21082;-77
2021/11/28 11:17:56;;;;;;;2.10;0.70;;;;;;;;;;4999871;28;20263;-77
2021/11/28 11:20:26;;;;;;;2.10;0.40;;;;;;;;;;4999143;28;20222;-77
2021/11/28 11:22:52;;;;;;;3.43;0.40;;;;;;;;;;4999251;28;20212;-77
2021/11/28 11:25:21;;;;;;;0.50;0.40;;;;;;;;;;4999181;28;20232;-77
2021/11/28 11:27:49;;;;;;;2.97;1.07;;;;;;;;;;4998618;28;20306;-77
2021/11/28 11:30:18;;;;;;;1.57;0.40;;;;;;;;;;4999587;28;20218;-77
2021/11/28 11:32:47;;;;;;;0.47;0.40;;;;;;;;;;4999787;28;20235;-77
2021/11/28 11:35:17;;;;;;;1.03;0.40;;;;;;;;;;4999052;28;20882;-77
2021/11/28 11:37:44;;;;;;;2.03;0.40;;;;;;;;;;4999909;28;20653;-77
2021/11/28 11:40:14;;;;;;;0.97;0.60;;;;;;;;;;4998173;28;20236;-77
2021/11/28 11:42:43;;;;;;;1.10;0.60;;;;;;;;;;4999407;28;20809;-77
2021/11/28 11:45:12;;;;;;;0.97;0.43;;;;;;;;;;4999327;28;20270;-77
2021/11/28 11:47:40;;;;;;;1.67;0.20;;;;;;;;;;4998467;28;20969;-77
2021/11/28 11:50:07;;;;;;;1.03;0.30;;;;;;;;;;4999583;28;20331;-77
2021/11/28 11:52:34;;;;;;;0.13;0.00;;;;;;;;;;4999349;28;20224;-77
2021/11/28 11:55:07;;;;;;;0.67;0.10;;;;;;;;;;4995347;28;20558;-77
2021/11/28 11:57:39;;;;;;;0.30;0.10;;;;;;;;;;4994684;28;20215;-77
2021/11/28 12:00:29;;;;;;;0.30;0.10;;;;;;;;;;4994222;28;20290;-77
2021/11/28 12:02:56;;;;;;;0.50;0.10;;;;;;;;;;4996397;28;20232;-77
2021/11/28 12:05:36;;;;;;;0.87;0.10;;;;;;;;;;4993836;28;20212;-77
2021/11/28 12:08:08;;;;;;;0.20;0.20;;;;;;;;;;4994825;28;20270;-77
2021/11/28 12:10:39;;;;;;;0.53;0.30;;;;;;;;;;4995001;28;20234;-77
2021/11/28 12:13:08;;;;;;;0.70;0.10;;;;;;;;;;4994081;28;20219;-77
2021/11/28 12:15:37;;;;;;;1.17;0.20;;;;;;;;;;4995285;28;20791;-77
2021/11/28 12:18:06;;;;;;;0.53;0.23;;;;;;;;;;4994039;28;20263;-77
2021/11/28 12:20:55;;;;;;;0.20;0.10;;;;;;;;;;4995107;28;20783;-77
2021/11/28 12:23:54;;;;;;;2.37;0.60;;;;;;;;;;4994972;28;20211;-77
2021/11/28 12:26:48;;;;;;;1.67;0.50;;;;;;;;;;4993206;28;20322;-77
2021/11/28 12:29:44;;;;;;;0.67;0.50;;;;;;;;;;4993700;28;20475;-77
2021/11/28 12:32:30;;;;;;;0.60;0.60;;;;;;;;;;4994285;28;20223;-77
2021/11/28 12:34:59;;;;;;;2.53;0.33;;;;;;;;;;4994872;28;21158;-76
2021/11/28 12:37:28;;;;;;;1.40;0.30;;;;;;;;;;4994016;28;20223;-76
2021/11/28 12:39:58;;;;;;;2.07;0.60;;;;;;;;;;4994665;28;20664;-76
2021/11/28 12:42:27;;;;;;;2.30;0.33;;;;;;;;;;4992940;28;20313;-76
2021/11/28 12:45:02;;;;;;;0.70;0.33;;;;;;;;;;4995056;28;20204;-76
2021/11/28 12:47:32;;;;;;;2.33;0.57;;;;;;;;;;4997276;28;20227;-76
2021/11/28 12:50:01;;;;;;;0.93;0.30;;;;;;;;;;4997449;28;20243;-76
2021/11/28 12:52:33;;;;;;;1.00;0.47;;;;;;;;;;4998494;28;20269;-76
2021/11/28 12:55:19;;;;;;;1.30;0.47;;;;;;;;;;4995930;28;20224;-76
2021/11/28 12:58:03;;;;;;;3.30;0.63;;;;;;;;;;4998343;28;20282;-76
2021/11/28 13:00:31;;;;;;;1.70;0.50;;;;;;;;;;4997444;28;20207;-76
2021/11/28 13:03:02;;;;;;;1.30;0.80;;;;;;;;;;4997040;28;20223;-77
2021/11/28 13:05:39;;;;;;;1.10;0.60;;;;;;;;;;4997687;28;20208;-76
2021/11/28 13:08:44;;;;;;;0.90;0.70;;;;;;;;;;4996844;28;20325;-77
2021/11/28 13:11:13;;;;;;;0.60;0.43;;;;;;;;;;4996587;28;20227;-77
2021/11/28 13:13:42;;;;;;;1.37;0.43;;;;;;;;;;4998713;28;20306;-76
2021/11/28 13:16:12;;;;;;;1.37;0.40;;;;;;;;;;4996741;28;20271;-77
2021/11/28 13:18:42;;;;;;;0.73;0.50;;;;;;;;;;4999183;28;20290;-76
2021/11/28 13:21:11;;;;;;;1.43;0.53;;;;;;;;;;4997240;28;20223;-76
2021/11/28 13:23:40;;;;;;;1.40;0.60;;;;;;;;;;4998179;28;20212;-77
2021/11/28 13:26:07;;;;;;;1.70;0.90;;;;;;;;;;4997071;28;20234;-77
2021/11/28 13:28:37;;;;;;;1.83;0.60;;;;;;;;;;4996876;28;20212;-76
2021/11/28 13:31:08;;;;;;;1.73;0.60;;;;;;;;;;4998028;28;20313;-76
2021/11/28 13:33:36;;;;;;;4.13;1.20;;;;;;;;;;4998028;28;20220;-77
2021/11/28 13:36:06;;;;;;;1.53;1.00;;;;;;;;;;4997745;28;20208;-76
2021/11/28 13:38:38;;;;;;;1.43;0.43;;;;;;;;;;4998616;28;20306;-76
2021/11/28 13:41:11;;;;;;;1.73;0.53;;;;;;;;;;4997007;28;20240;-76
2021/11/28 13:43:40;;;;;;;2.10;0.50;;;;;;;;;;4998136;28;20323;-76
2021/11/28 13:46:07;;;;;;;1.23;0.40;;;;;;;;;;4997013;28;20215;-76
2021/11/28 13:48:42;;;;;;;1.13;0.40;;;;;;;;;;4997513;28;20263;-76
2021/11/28 13:51:10;;;;;;;0.57;0.43;;;;;;;;;;4997247;28;20208;-76
2021/11/28 13:53:50;;;;;;;1.17;0.40;;;;;;;;;;4996954;28;20347;-76
2021/11/28 13:56:16;;;;;;;1.10;0.57;;;;;;;;;;4997403;28;20231;-76
2021/11/28 13:58:42;;;;;;;0.93;0.57;;;;;;;;;;4998694;28;20293;-76
2021/11/28 14:01:09;;;;;;;0.80;0.43;;;;;;;;;;5000851;28;20220;-76
2021/11/28 14:03:42;;;;;;;1.40;0.47;;;;;;;;;;5002351;28;20219;-76
2021/11/28 14:06:09;;;;;;;1.40;0.20;;;;;;;;;;4999718;28;20266;-76
2021/11/28 14:08:36;;;;;;;0.60;0.30;;;;;;;;;;5001197;28;20270;-76
2021/11/28 14:11:12;;;;;;;1.90;0.40;;;;;;;;;;5000684;28;20228;-76
2021/11/28 14:13:45;;;;;;;0.43;0.30;;;;;;;;;;5000406;28;20287;-76
2021/11/28 14:16:12;;;;;;;0.57;0.30;;;;;;;;;;5001252;28;21012;-76
2021/11/28 14:18:42;;;;;;;0.53;0.27;;;;;;;;;;5000136;28;20238;-76
2021/11/28 14:21:10;;;;;;;0.73;0.20;;;;;;;;;;5000797;28;20303;-76
2021/11/28 14:23:37;;;;;;;1.13;0.40;;;;;;;;;;5001768;28;20828;-76
2021/11/28 14:26:03;;;;;;;0.50;0.20;;;;;;;;;;4999854;28;20311;-76
2021/11/28 14:28:33;;;;;;;0.30;0.20;;;;;;;;;;5000834;28;20215;-76
2021/11/28 14:31:03;;;;;;;0.13;0.10;;;;;;;;;;5000382;28;20239;-76
2021/11/28 14:33:34;;;;;;;0.37;0.20;;;;;;;;;;5000986;28;20224;-76
2021/11/28 14:36:02;;;;;;;0.50;0.13;;;;;;;;;;5000074;28;20246;-76